Time;durP1;ratioP1;P1;durP2;ratioP2;P2;SDS_P1;SDS_P2;PMS_P1;PMS_P2;Temp;Humidity;BMP_temperature;BMP_pressure;BME280_temperature;BME280_humidity;BME280_pressure;Samples;Min_cycle;Max_cycle;Signal;HPM_P1;HPM_P2
2023/10/07 00:00:32;;;;;;;13.48;10.57;;;;;;;24.14;56.47;101920.72;5006415;28;20424;-59
2023/10/07 00:03:01;;;;;;;11.10;9.30;;;;;;;24.15;56.65;101923.31;5006819;28;20049;-60
2023/10/07 00:05:41;;;;;;;10.93;9.75;;;;;;;24.16;56.75;101918.75;5009383;28;20048;-60
2023/10/07 00:08:12;;;;;;;10.38;9.32;;;;;;;24.16;56.84;101919.59;5009123;28;20080;-59
2023/10/07 00:10:40;;;;;;;10.25;9.25;;;;;;;24.16;56.46;101908.78;5007905;28;20053;-59
2023/10/07 00:13:14;;;;;;;10.50;9.40;;;;;;;24.15;56.63;101907.06;5009731;28;20050;-58
2023/10/07 00:15:47;;;;;;;10.43;9.32;;;;;;;24.18;56.45;101905.91;5009190;28;20045;-60
2023/10/07 00:18:18;;;;;;;10.52;9.43;;;;;;;24.20;56.85;101905.78;5005782;28;20069;-60
2023/10/07 00:20:48;;;;;;;10.50;9.50;;;;;;;24.20;56.46;101903.94;5004769;28;20054;-61
2023/10/07 00:23:20;;;;;;;9.73;8.82;;;;;;;24.22;56.90;101907.34;5014078;28;20045;-62
2023/10/07 00:25:49;;;;;;;10.52;9.40;;;;;;;24.22;56.95;101899.22;5011874;28;20076;-62
2023/10/07 00:28:18;;;;;;;11.60;9.48;;;;;;;24.23;56.91;101903.69;5007312;28;20050;-62
2023/10/07 00:30:46;;;;;;;11.70;9.40;;;;;;;24.24;56.90;101894.56;5013356;28;20034;-61
2023/10/07 00:33:14;;;;;;;11.73;10.10;;;;;;;24.24;56.94;101889.16;5013255;28;20400;-62
2023/10/07 00:35:42;;;;;;;10.27;9.20;;;;;;;24.24;56.88;101888.28;5010236;28;20081;-62
2023/10/07 00:38:14;;;;;;;9.70;8.35;;;;;;;24.25;56.85;101887.28;5006351;28;20050;-62
2023/10/07 00:40:52;;;;;;;10.25;9.15;;;;;;;24.25;56.95;101887.28;5003897;28;20415;-60
2023/10/07 00:43:25;;;;;;;10.23;9.20;;;;;;;24.24;56.80;101883.72;5011984;28;20436;-61
2023/10/07 00:45:59;;;;;;;9.95;8.95;;;;;;;24.27;57.08;101879.91;4996018;28;20043;-62
2023/10/07 00:48:42;;;;;;;10.15;9.15;;;;;;;24.26;57.11;101878.16;4999819;28;20075;-62
2023/10/07 00:51:11;;;;;;;10.15;8.93;;;;;;;24.26;57.05;101879.03;5009143;28;20045;-60
2023/10/07 00:53:46;;;;;;;9.85;8.85;;;;;;;24.26;56.85;101873.59;5008561;28;20071;-60
2023/10/07 00:56:15;;;;;;;11.40;10.18;;;;;;;24.28;56.88;101876.19;5004335;28;20424;-60
2023/10/07 00:58:46;;;;;;;9.63;8.50;;;;;;;24.27;56.87;101871.78;5011891;28;20057;-61
2023/10/07 01:01:14;;;;;;;9.73;8.73;;;;;;;24.27;57.12;101871.78;5013918;28;20050;-61
2023/10/07 01:03:48;;;;;;;9.88;8.88;;;;;;;24.27;56.83;101864.53;5007713;28;20066;-62
2023/10/07 01:06:31;;;;;;;10.65;9.25;;;;;;;24.27;56.91;101866.38;5005633;28;20049;-62
2023/10/07 01:09:07;;;;;;;10.73;9.63;;;;;;;24.27;56.91;101861.81;5008418;28;20053;-60
2023/10/07 01:11:40;;;;;;;10.70;8.60;;;;;;;24.27;57.01;101859.09;5009139;28;20046;-60
2023/10/07 01:14:10;;;;;;;10.60;9.52;;;;;;;24.27;56.83;101851.00;5008937;28;20045;-60
2023/10/07 01:16:44;;;;;;;11.40;10.20;;;;;;;24.28;56.76;101852.69;5011932;28;20058;-60
2023/10/07 01:21:55;;;;;;;10.68;9.57;;;;;;;24.28;56.77;101843.72;5003649;28;20046;-62
2023/10/07 01:27:21;;;;;;;10.77;9.68;;;;;;;24.26;56.78;101838.44;5013058;28;20050;-62
2023/10/07 01:30:15;;;;;;;12.27;9.85;;;;;;;24.26;56.72;101838.44;5009811;28;20049;-62
2023/10/07 01:35:32;;;;;;;10.43;9.23;;;;;;;24.26;56.66;101833.00;5021685;28;20058;-62
2023/10/07 01:38:00;;;;;;;10.75;9.65;;;;;;;24.25;56.48;101830.47;5012608;28;20046;-62
2023/10/07 01:40:43;;;;;;;10.70;9.60;;;;;;;24.26;56.57;101841.13;5011006;28;20050;-60
2023/10/07 01:43:11;;;;;;;10.60;9.55;;;;;;;24.27;56.66;101836.59;5007260;28;20057;-60
2023/10/07 01:45:39;;;;;;;11.63;9.25;;;;;;;24.26;56.36;101826.75;5008835;28;20505;-60
2023/10/07 01:48:07;;;;;;;11.93;10.60;;;;;;;24.26;56.74;101834.88;5009209;28;20065;-60
2023/10/07 01:50:41;;;;;;;11.65;9.48;;;;;;;24.26;56.43;101829.47;5010293;28;20057;-60
2023/10/07 01:53:08;;;;;;;11.02;9.60;;;;;;;24.27;56.75;101833.91;4999030;28;20041;-60
2023/10/07 01:55:42;;;;;;;10.93;9.13;;;;;;;24.26;56.41;101827.59;5009816;28;20057;-60
2023/10/07 01:58:13;;;;;;;10.30;9.20;;;;;;;24.26;56.55;101827.59;5008336;28;20046;-60
2023/10/07 02:00:46;;;;;;;12.77;11.32;;;;;;;24.26;56.46;101819.50;5009357;28;20050;-61
2023/10/07 02:03:23;;;;;;;11.77;10.57;;;;;;;24.26;56.27;101821.34;5011401;28;20062;-62
2023/10/07 02:05:52;;;;;;;10.35;9.27;;;;;;;24.26;56.10;101818.63;5012417;28;20053;-62
2023/10/07 02:08:24;;;;;;;11.00;9.35;;;;;;;24.26;56.07;101815.94;5009566;28;20048;-62
2023/10/07 02:10:58;;;;;;;11.20;10.07;;;;;;;24.27;56.47;101813.09;5002581;28;20046;-60
2023/10/07 02:13:30;;;;;;;13.25;10.45;;;;;;;24.26;56.26;101808.66;5011386;28;20045;-60
2023/10/07 02:15:58;;;;;;;10.48;9.48;;;;;;;24.27;56.25;101809.53;5010986;28;20507;-60
2023/10/07 02:18:27;;;;;;;11.10;9.90;;;;;;;24.27;56.23;101812.25;5013415;28;20534;-60
2023/10/07 02:21:07;;;;;;;11.77;10.57;;;;;;;24.27;56.18;101801.44;5006489;28;20047;-62
2023/10/07 02:23:46;;;;;;;12.32;9.77;;;;;;;24.26;56.04;101803.25;5010048;28;20050;-62
2023/10/07 02:26:18;;;;;;;11.73;10.52;;;;;;;24.25;56.17;101796.13;5001474;28;20496;-62
2023/10/07 02:28:51;;;;;;;10.55;9.45;;;;;;;24.26;56.14;101800.53;5012428;28;20045;-60
2023/10/07 02:31:20;;;;;;;11.10;10.00;;;;;;;24.26;55.97;101795.13;5011995;28;20050;-60
2023/10/07 02:33:52;;;;;;;11.63;10.43;;;;;;;24.26;56.18;101799.69;5011638;28;20045;-60
2023/10/07 02:36:35;;;;;;;10.77;9.68;;;;;;;24.26;56.00;101791.56;5012067;28;20046;-60
2023/10/07 02:39:18;;;;;;;11.50;10.40;;;;;;;24.26;56.04;101794.28;5014538;28;20060;-61
2023/10/07 02:41:47;;;;;;;11.40;9.95;;;;;;;24.26;55.99;101789.72;5004163;28;20057;-62
2023/10/07 02:44:17;;;;;;;10.82;9.73;;;;;;;24.26;55.92;101789.72;4997936;28;20516;-62
2023/10/07 02:46:52;;;;;;;10.10;9.10;;;;;;;24.26;55.84;101799.69;5006572;28;20519;-62
2023/10/07 02:49:21;;;;;;;10.82;9.73;;;;;;;24.26;56.04;101789.72;5010105;28;20058;-61
2023/10/07 02:52:00;;;;;;;11.63;10.20;;;;;;;24.26;56.10;101794.28;5009450;28;20046;-62
2023/10/07 02:54:34;;;;;;;11.50;10.25;;;;;;;24.26;56.02;101786.16;5015662;28;20535;-62
2023/10/07 02:59:50;;;;;;;11.07;9.90;;;;;;;24.26;55.96;101799.69;5012041;28;20046;-61
2023/10/07 03:07:41;;;;;;;10.15;9.25;;;;;;;24.27;55.74;101801.44;5010116;28;20054;-62
2023/10/07 03:12:57;;;;;;;12.98;10.15;;;;;;;24.27;55.89;101796.00;5013945;28;20389;-60
2023/10/07 03:18:04;;;;;;;11.95;10.38;;;;;;;24.26;56.03;101794.28;5010766;28;20049;-60
2023/10/07 03:20:46;;;;;;;10.65;9.48;;;;;;;24.26;56.00;101788.88;5011538;28;20058;-60
2023/10/07 03:23:15;;;;;;;10.80;9.70;;;;;;;24.28;56.10;101786.91;5009213;28;20042;-59
2023/10/07 03:28:35;;;;;;;10.80;9.70;;;;;;;24.30;56.15;101801.13;5011346;28;20046;-60
2023/10/07 03:31:08;;;;;;;10.23;9.23;;;;;;;24.30;55.97;101793.84;5008083;28;20378;-61
2023/10/07 03:33:45;;;;;;;10.20;9.20;;;;;;;24.32;55.95;101794.59;5001541;28;20378;-61
2023/10/07 03:38:44;;;;;;;9.15;8.25;;;;;;;24.32;56.09;101793.72;5009463;28;20046;-61
2023/10/07 03:41:11;;;;;;;8.85;7.97;;;;;;;24.32;55.91;101799.16;5008102;28;20409;-62
2023/10/07 03:43:41;;;;;;;10.60;9.50;;;;;;;24.32;55.77;101793.72;5001921;28;20358;-62
2023/10/07 03:46:08;;;;;;;11.75;10.55;;;;;;;24.30;56.11;101788.44;5011261;28;20523;-62
2023/10/07 03:48:40;;;;;;;11.25;9.88;;;;;;;24.29;55.88;101786.75;4998803;28;20042;-60
2023/10/07 03:51:09;;;;;;;11.13;9.60;;;;;;;24.30;55.78;101793.00;5001504;28;20054;-60
2023/10/07 03:53:46;;;;;;;10.75;9.63;;;;;;;24.30;55.93;101793.00;5011279;28;20050;-60
2023/10/07 03:56:16;;;;;;;11.00;9.35;;;;;;;24.29;55.67;101792.16;5010990;28;20120;-61
2023/10/07 03:58:44;;;;;;;10.30;9.30;;;;;;;24.28;55.63;101787.75;5012520;28;20072;-61
2023/10/07 04:01:16;;;;;;;11.32;9.50;;;;;;;24.30;55.94;101790.28;5014304;28;20053;-61
2023/10/07 04:03:47;;;;;;;9.98;8.77;;;;;;;24.29;55.75;101786.75;5014257;28;20057;-62
2023/10/07 04:06:19;;;;;;;11.00;9.90;;;;;;;24.31;55.92;101782.06;5014316;28;20069;-62
2023/10/07 04:08:53;;;;;;;10.93;9.82;;;;;;;24.30;55.78;101785.72;5012982;28;20046;-60
2023/10/07 04:11:30;;;;;;;10.57;9.48;;;;;;;24.30;55.99;101782.19;5010860;28;20068;-60
2023/10/07 04:13:58;;;;;;;9.90;8.90;;;;;;;24.30;55.93;101780.31;5010317;28;20049;-60
2023/10/07 04:16:29;;;;;;;10.63;9.55;;;;;;;24.30;55.85;101785.72;5008899;28;20046;-57
2023/10/07 04:21:45;;;;;;;12.93;11.63;;;;;;;24.24;55.36;101788.19;5011202;28;20511;-58
2023/10/07 04:24:13;;;;;;;12.80;11.50;;;;;;;24.22;54.91;101785.59;5007844;28;20061;-57
2023/10/07 04:26:51;;;;;;;15.13;13.52;;;;;;;24.17;54.49;101782.47;5010823;28;20052;-57
2023/10/07 04:29:21;;;;;;;14.77;13.25;;;;;;;24.15;54.25;101788.03;5013480;28;20050;-58
2023/10/07 04:31:51;;;;;;;18.27;14.90;;;;;;;24.11;54.18;101788.44;5010385;28;20117;-59
2023/10/07 04:34:20;;;;;;;14.15;12.65;;;;;;;24.08;54.07;101786.88;5009481;28;20046;-59
2023/10/07 04:39:39;;;;;;;16.70;14.13;;;;;;;24.04;53.88;101790.00;5010645;28;20069;-57
2023/10/07 04:42:07;;;;;;;16.58;14.85;;;;;;;23.99;54.07;101785.00;5009879;28;20092;-57
2023/10/07 04:47:46;;;;;;;;;;;;;;;23.95;54.22;101797.09;5010996;28;20050;-57
2023/10/07 04:52:33;;;;;;;16.63;14.82;;;;;;;23.91;54.06;101796.53;5010558;28;20050;-57
2023/10/07 04:55:01;;;;;;;16.13;14.43;;;;;;;23.91;54.23;101801.06;5010400;28;20061;-57
2023/10/07 04:57:56;;;;;;;15.70;14.02;;;;;;;23.90;54.10;101796.63;5008650;28;20050;-57
2023/10/07 05:03:14;;;;;;;15.18;13.48;;;;;;;23.87;53.38;101796.94;5010273;28;20038;-57
2023/10/07 05:05:46;;;;;;;16.70;14.75;;;;;;;23.85;53.25;101801.63;5009186;28;20064;-57
2023/10/07 05:08:19;;;;;;;14.20;12.68;;;;;;;23.83;53.28;101809.03;5012021;28;20058;-57
2023/10/07 05:10:52;;;;;;;15.38;13.48;;;;;;;23.80;53.34;101802.03;5012931;28;20054;-57
2023/10/07 05:13:21;;;;;;;20.05;15.00;;;;;;;23.80;53.30;101803.88;5010334;28;20042;-57
2023/10/07 05:15:49;;;;;;;15.30;13.70;;;;;;;23.79;53.73;101807.59;5003964;28;20050;-57
2023/10/07 05:18:17;;;;;;;16.70;14.90;;;;;;;23.77;53.65;101805.00;5010260;28;20057;-57
2023/10/07 05:20:48;;;;;;;16.15;14.60;;;;;;;23.77;53.79;101813.13;5010536;28;20062;-59
2023/10/07 05:23:17;;;;;;;17.67;15.77;;;;;;;23.76;53.68;101805.16;5010604;28;20046;-59
2023/10/07 05:25:48;;;;;;;16.70;14.23;;;;;;;23.75;53.59;101811.56;5010397;28;20404;-59
2023/10/07 05:28:21;;;;;;;17.95;15.40;;;;;;;23.74;53.87;101807.13;5010363;28;20404;-59
2023/10/07 05:30:51;;;;;;;16.98;15.23;;;;;;;23.73;53.76;101814.38;5006809;28;20073;-57
2023/10/07 05:33:26;;;;;;;17.95;15.27;;;;;;;23.72;53.92;101817.25;5009677;28;20046;-57
2023/10/07 05:36:08;;;;;;;16.90;15.20;;;;;;;23.71;53.79;101815.53;5009271;28;20050;-57
2023/10/07 05:38:38;;;;;;;16.43;14.70;;;;;;;23.71;53.52;101820.94;5009217;28;20048;-58
2023/10/07 05:41:12;;;;;;;16.63;14.93;;;;;;;23.68;53.72;101828.31;5010792;28;20306;-59
2023/10/07 05:43:48;;;;;;;18.63;15.65;;;;;;;23.68;53.63;101825.59;5014124;28;20037;-59
2023/10/07 05:46:19;;;;;;;17.30;15.40;;;;;;;23.67;53.89;101823.91;5004079;28;20482;-59
2023/10/07 05:48:47;;;;;;;17.27;14.85;;;;;;;23.67;53.85;101831.16;5001135;28;20054;-57
2023/10/07 05:51:16;;;;;;;16.27;14.57;;;;;;;23.66;53.74;101827.63;5013898;28;20046;-58
2023/10/07 05:53:49;;;;;;;16.55;14.80;;;;;;;23.65;53.69;101835.81;5014062;28;20399;-57
2023/10/07 05:56:16;;;;;;;18.23;15.15;;;;;;;23.64;53.65;101826.00;5013199;28;20064;-57
2023/10/07 05:58:48;;;;;;;16.35;14.73;;;;;;;23.63;53.89;101829.69;5012392;28;20054;-58
2023/10/07 06:01:16;;;;;;;18.23;16.08;;;;;;;23.61;53.70;101835.22;5014191;28;20046;-57
2023/10/07 06:03:46;;;;;;;17.00;14.90;;;;;;;23.61;54.02;101837.91;5013911;28;20400;-58
2023/10/07 06:06:14;;;;;;;18.33;16.42;;;;;;;23.61;53.96;101837.91;5012460;28;20046;-58
2023/10/07 06:08:42;;;;;;;18.35;15.50;;;;;;;23.61;54.01;101840.63;5014271;28;20392;-58
2023/10/07 06:11:12;;;;;;;17.48;15.68;;;;;;;23.62;54.28;101849.63;5013592;28;20050;-58
2023/10/07 06:13:40;;;;;;;16.98;15.13;;;;;;;23.61;54.33;101848.72;5013621;28;20046;-57
2023/10/07 06:16:08;;;;;;;16.85;15.05;;;;;;;23.61;54.20;101846.03;5011905;28;20113;-58
2023/10/07 06:18:36;;;;;;;16.48;14.85;;;;;;;23.61;54.52;101851.44;5013541;28;20057;-57
2023/10/07 06:21:27;;;;;;;16.48;14.85;;;;;;;23.62;54.12;101852.31;5013476;28;20057;-59
2023/10/07 06:23:58;;;;;;;17.23;15.38;;;;;;;23.61;54.12;101862.25;5012242;28;20053;-59
2023/10/07 06:26:30;;;;;;;16.90;15.10;;;;;;;23.62;54.38;101861.28;5013699;28;20061;-59
2023/10/07 06:29:05;;;;;;;16.83;15.13;;;;;;;23.62;54.60;101861.28;5014773;28;20050;-58
2023/10/07 06:31:34;;;;;;;16.63;14.95;;;;;;;23.64;54.48;101859.28;5013280;28;20427;-58
2023/10/07 06:36:31;;;;;;;16.90;15.10;;;;;;;23.66;54.67;101864.59;5012262;28;20050;-57
2023/10/07 06:39:01;;;;;;;16.98;15.15;;;;;;;23.68;54.40;101868.03;5004795;28;20049;-57
2023/10/07 06:41:33;;;;;;;17.48;15.05;;;;;;;23.67;54.29;101875.28;5013825;28;20057;-58
2023/10/07 06:44:04;;;;;;;16.80;15.10;;;;;;;23.69;54.71;101873.28;5012015;28;20046;-57
2023/10/07 06:46:42;;;;;;;15.63;13.02;;;;;;;23.73;54.67;101878.41;5013505;28;20057;-57
2023/10/07 06:49:20;;;;;;;16.52;14.77;;;;;;;23.73;54.28;101879.28;5013286;28;20432;-57
2023/10/07 06:51:52;;;;;;;16.33;14.73;;;;;;;23.75;54.67;101881.88;5013656;28;20489;-57
2023/10/07 06:54:21;;;;;;;14.63;13.15;;;;;;;23.75;54.23;101882.72;5013529;28;20050;-57
2023/10/07 06:56:50;;;;;;;16.30;14.60;;;;;;;23.76;54.52;101887.13;5013060;28;20045;-57
2023/10/07 06:59:18;;;;;;;16.88;14.95;;;;;;;23.78;54.21;101884.28;5012257;28;20046;-57
2023/10/07 07:01:51;;;;;;;16.42;14.45;;;;;;;23.80;53.95;101895.81;5012299;28;20518;-57
2023/10/07 07:04:21;;;;;;;16.60;14.90;;;;;;;23.82;53.94;101893.81;5013206;28;20062;-57
2023/10/07 07:07:10;;;;;;;16.02;14.43;;;;;;;23.83;53.88;101895.56;5013181;28;20508;-57
2023/10/07 07:09:50;;;;;;;15.48;13.68;;;;;;;23.85;54.06;101899.81;5012463;28;20050;-59
2023/10/07 07:12:21;;;;;;;13.88;12.50;;;;;;;23.85;54.04;101898.97;5013001;28;20492;-59
2023/10/07 07:15:04;;;;;;;14.75;13.25;;;;;;;23.86;53.83;101895.25;5012605;28;20049;-59
2023/10/07 07:22:49;;;;;;;15.83;14.17;;;;;;;23.88;53.82;101906.81;5013205;28;20050;-59
2023/10/07 07:27:50;;;;;;;15.20;13.27;;;;;;;23.89;54.00;101913.94;5012599;28;20046;-59
2023/10/07 07:30:31;;;;;;;15.38;13.77;;;;;;;23.90;53.92;101918.34;5012956;28;20077;-59
2023/10/07 07:33:11;;;;;;;14.48;13.07;;;;;;;23.90;54.04;101916.53;5010420;28;20045;-59
2023/10/07 07:35:44;;;;;;;15.77;14.10;;;;;;;23.90;54.45;101918.34;5012549;28;20062;-59
2023/10/07 07:41:05;;;;;;;14.30;12.80;;;;;;;23.92;54.31;101928.03;5012183;28;20042;-59
2023/10/07 07:43:36;;;;;;;14.77;12.10;;;;;;;23.93;54.52;101932.44;5012554;28;20484;-59
2023/10/07 07:46:51;;;;;;;14.10;12.60;;;;;;;23.95;54.46;101932.34;5012721;28;20412;-60
2023/10/07 07:49:06;;;;;;;15.77;14.05;;;;;;;23.96;54.47;101920.50;5002924;28;20061;-60
2023/10/07 07:51:38;;;;;;;14.27;12.77;;;;;;;23.97;54.48;101930.34;5012890;28;20046;-61
2023/10/07 07:54:06;;;;;;;15.20;12.65;;;;;;;23.97;54.41;101929.47;5012853;28;20056;-61
2023/10/07 07:56:35;;;;;;;15.57;13.40;;;;;;;23.98;54.36;101934.75;5012313;28;20050;-60
2023/10/07 07:59:13;;;;;;;17.02;14.88;;;;;;;23.97;54.59;101927.63;5008095;28;20046;-60
2023/10/07 08:01:50;;;;;;;17.90;15.48;;;;;;;23.95;54.58;101935.03;5024085;28;20061;-60
2023/10/07 08:04:19;;;;;;;16.00;14.48;;;;;;;23.95;54.79;101926.94;5010219;28;20046;-60
2023/10/07 08:06:47;;;;;;;16.90;14.80;;;;;;;23.97;54.61;101935.75;5002599;28;20050;-59
2023/10/07 08:09:19;;;;;;;16.35;14.15;;;;;;;23.98;54.33;101942.84;5012450;28;20396;-60
2023/10/07 08:11:49;;;;;;;16.08;14.38;;;;;;;23.99;54.76;101936.47;5012231;28;20057;-61
2023/10/07 08:14:17;;;;;;;17.58;15.82;;;;;;;23.95;54.69;101926.94;5009841;28;20046;-60
2023/10/07 08:16:50;;;;;;;26.30;21.40;;;;;;;23.87;55.02;101929.44;5012383;28;20049;-61
2023/10/07 08:19:20;;;;;;;25.05;21.58;;;;;;;23.74;54.56;101934.19;5011956;28;20057;-61
2023/10/07 08:21:53;;;;;;;24.33;21.00;;;;;;;23.61;54.73;101935.25;5011962;28;20053;-62
2023/10/07 08:24:21;;;;;;;21.55;18.65;;;;;;;23.58;54.95;101935.53;5011237;28;20883;-62
2023/10/07 08:26:49;;;;;;;18.92;16.88;;;;;;;23.56;54.90;101933.94;5011955;28;20427;-62
2023/10/07 08:29:32;;;;;;;24.40;21.00;;;;;;;23.50;55.28;101938.03;5012321;28;20049;-61
2023/10/07 08:32:29;;;;;;;25.60;21.13;;;;;;;23.45;55.03;101935.72;5009864;28;20062;-61
2023/10/07 08:34:59;;;;;;;21.98;19.48;;;;;;;23.40;55.43;101943.38;5006140;28;20049;-61
2023/10/07 08:37:32;;;;;;;21.77;19.40;;;;;;;23.38;55.32;101939.94;5011849;28;20053;-61
2023/10/07 08:40:11;;;;;;;21.50;19.20;;;;;;;23.36;55.20;101930.25;5005576;28;20038;-61
2023/10/07 08:42:44;;;;;;;21.13;18.50;;;;;;;23.36;55.36;101936.50;5011669;28;20041;-61
2023/10/07 08:45:14;;;;;;;20.70;18.38;;;;;;;23.35;55.34;101928.53;5011849;28;20042;-61
2023/10/07 08:47:52;;;;;;;24.17;21.67;;;;;;;23.30;55.51;101933.50;5011181;28;20053;-61
2023/10/07 08:50:23;;;;;;;24.88;21.77;;;;;;;23.28;55.67;101930.06;5011816;28;20056;-61
2023/10/07 08:53:07;;;;;;;26.10;22.48;;;;;;;23.26;55.59;101929.34;5010927;28;20048;-61
2023/10/07 08:55:35;;;;;;;23.95;21.52;;;;;;;23.24;55.97;101936.72;5010496;28;20428;-61
2023/10/07 08:58:03;;;;;;;22.65;19.52;;;;;;;23.25;55.89;101930.31;5011794;28;20049;-61
2023/10/07 09:00:39;;;;;;;25.00;20.73;;;;;;;23.27;55.82;101933.75;5012176;28;20058;-61
2023/10/07 09:03:14;;;;;;;21.83;19.20;;;;;;;23.27;55.74;101925.66;5012071;28;20050;-62
2023/10/07 09:05:44;;;;;;;19.45;17.30;;;;;;;23.28;55.73;101928.19;5011307;28;20049;-62
2023/10/07 09:08:12;;;;;;;22.88;19.95;;;;;;;23.29;55.85;101929.06;5011751;28;20382;-62
2023/10/07 09:10:40;;;;;;;22.42;20.05;;;;;;;23.29;56.04;101932.59;5011865;28;20049;-61
2023/10/07 09:13:12;;;;;;;23.83;19.63;;;;;;;23.30;55.88;101926.25;5010325;28;20574;-61
2023/10/07 09:15:42;;;;;;;19.98;17.83;;;;;;;23.33;55.89;101927.81;5012546;28;20046;-61
2023/10/07 09:18:10;;;;;;;19.60;17.52;;;;;;;23.34;55.87;101932.25;5015524;28;20488;-61
2023/10/07 09:20:45;;;;;;;20.65;18.45;;;;;;;23.40;55.76;101927.16;5015591;28;20050;-61
2023/10/07 09:23:19;;;;;;;20.75;18.65;;;;;;;23.45;55.76;101921.34;5013720;28;20050;-61
2023/10/07 09:25:51;;;;;;;23.73;18.38;;;;;;;23.47;55.92;101922.09;5015592;28;20044;-61
2023/10/07 09:28:29;;;;;;;23.50;20.52;;;;;;;23.47;55.94;101932.91;5018251;28;20053;-61
2023/10/07 09:31:05;;;;;;;22.33;20.00;;;;;;;23.47;56.15;101923.94;5013981;28;20076;-61
2023/10/07 09:33:36;;;;;;;20.98;16.63;;;;;;;23.47;56.12;101924.78;5015619;28;20049;-61
2023/10/07 09:36:33;;;;;;;22.15;19.83;;;;;;;23.48;56.21;101928.34;5015169;28;20038;-61
2023/10/07 09:39:31;;;;;;;24.70;20.08;;;;;;;23.47;55.95;101926.63;5015262;28;20385;-61
2023/10/07 09:42:10;;;;;;;23.15;20.45;;;;;;;23.45;56.14;101922.19;5016035;28;20049;-61
2023/10/07 09:44:38;;;;;;;21.77;19.30;;;;;;;23.49;56.01;101919.22;5014768;28;20038;-60
2023/10/07 09:47:10;;;;;;;23.95;20.48;;;;;;;23.53;56.07;101928.78;5015437;28;20396;-61
2023/10/07 09:49:38;;;;;;;21.05;18.83;;;;;;;23.54;55.77;101925.97;5015238;28;20061;-61
2023/10/07 09:52:18;;;;;;;19.33;17.17;;;;;;;23.58;55.90;101916.59;5015535;28;20054;-61
2023/10/07 09:55:18;;;;;;;23.02;18.35;;;;;;;23.57;56.08;101917.56;5014192;28;20046;-61
2023/10/07 09:58:24;;;;;;;22.00;19.67;;;;;;;23.58;55.83;101923.88;5015326;28;20392;-61
2023/10/07 10:01:04;;;;;;;20.25;18.05;;;;;;;23.56;55.87;101915.88;5015492;28;20050;-61
2023/10/07 10:03:45;;;;;;;20.10;17.95;;;;;;;23.57;56.02;101920.28;5014924;28;20046;-61
2023/10/07 10:06:33;;;;;;;21.58;18.98;;;;;;;23.57;55.54;101909.47;5012407;28;20041;-61
2023/10/07 10:09:14;;;;;;;23.23;19.27;;;;;;;23.58;56.30;101908.50;5008055;28;20045;-61
2023/10/07 10:12:18;;;;;;;21.73;19.45;;;;;;;23.58;56.06;101911.19;5014918;28;20054;-61
2023/10/07 10:17:48;;;;;;;19.90;17.80;;;;;;;23.61;56.03;101894.69;5023810;28;20058;-61
2023/10/07 10:20:18;;;;;;;21.58;19.10;;;;;;;23.66;55.66;101888.94;5013425;28;20069;-61
2023/10/07 10:22:53;;;;;;;22.25;18.23;;;;;;;23.69;55.69;101886.78;5014569;28;20488;-61
2023/10/07 10:25:25;;;;;;;21.67;19.02;;;;;;;23.69;55.96;101886.78;5014554;28;20045;-61
2023/10/07 10:28:02;;;;;;;19.58;17.23;;;;;;;23.72;55.51;101880.28;5013280;28;20070;-61
2023/10/07 10:30:30;;;;;;;22.05;19.10;;;;;;;23.72;55.64;101876.72;5006335;28;20038;-61
2023/10/07 10:33:08;;;;;;;23.52;19.25;;;;;;;23.75;55.76;101876.44;5014488;28;20061;-61
2023/10/07 10:35:40;;;;;;;19.95;17.42;;;;;;;23.75;55.81;101869.19;5010320;28;20038;-60
2023/10/07 10:38:09;;;;;;;20.98;17.98;;;;;;;23.79;55.78;101867.06;5014039;28;20500;-61
2023/10/07 10:40:37;;;;;;;21.52;17.35;;;;;;;23.81;55.58;101862.38;5012462;28;20061;-61
2023/10/07 10:43:05;;;;;;;21.67;17.90;;;;;;;23.83;55.91;101863.97;5011885;28;20042;-61
2023/10/07 10:45:33;;;;;;;21.30;17.48;;;;;;;23.83;55.58;101860.41;5010926;28;20042;-61
2023/10/07 10:48:00;;;;;;;20.00;17.85;;;;;;;23.85;55.35;101853.84;5014116;28;20061;-61
2023/10/07 10:50:32;;;;;;;21.17;18.65;;;;;;;23.85;55.40;101851.13;5014192;28;20392;-61
2023/10/07 10:53:00;;;;;;;22.33;19.55;;;;;;;23.86;55.41;101850.19;5014268;28;20049;-61
2023/10/07 10:55:34;;;;;;;22.45;18.52;;;;;;;23.89;55.64;101836.34;5013203;28;20053;-61
2023/10/07 10:58:02;;;;;;;21.10;17.55;;;;;;;23.91;55.65;101841.66;5014218;28;20369;-61
2023/10/07 11:00:48;;;;;;;17.53;15.43;;;;;;;23.93;55.56;101829.69;5014314;28;20496;-61
2023/10/07 11:03:20;;;;;;;19.17;16.95;;;;;;;23.95;55.57;101829.56;5011711;28;20284;-61
2023/10/07 11:05:52;;;;;;;17.77;15.98;;;;;;;23.98;55.18;101825.69;5013968;28;20049;-61
2023/10/07 11:08:24;;;;;;;18.65;16.55;;;;;;;23.99;55.40;101820.16;5013978;28;20057;-61
2023/10/07 11:10:53;;;;;;;21.02;18.60;;;;;;;23.99;55.46;101816.63;5013822;28;20052;-61
2023/10/07 11:13:22;;;;;;;23.42;19.10;;;;;;;24.00;55.53;101813.75;5012777;28;20053;-61
2023/10/07 11:15:58;;;;;;;22.58;20.20;;;;;;;24.00;55.61;101811.06;5037330;28;20038;-61
2023/10/07 11:18:31;;;;;;;21.02;18.77;;;;;;;24.00;55.13;101799.38;5014148;28;20050;-61
2023/10/07 11:20:59;;;;;;;21.77;19.52;;;;;;;24.01;55.56;101793.81;5010001;28;20426;-61
2023/10/07 11:23:27;;;;;;;20.48;17.65;;;;;;;24.02;55.27;101795.53;5013577;28;20053;-61
2023/10/07 11:25:55;;;;;;;19.63;16.35;;;;;;;24.04;55.28;101788.13;5013604;28;20057;-61
2023/10/07 11:28:23;;;;;;;19.73;15.77;;;;;;;24.05;55.54;101789.84;5012646;28;20054;-61
2023/10/07 11:30:51;;;;;;;18.42;16.30;;;;;;;24.07;55.24;101778.91;5012572;28;20057;-61
2023/10/07 11:33:20;;;;;;;21.33;17.67;;;;;;;24.09;55.52;101782.31;5003201;28;20064;-60
2023/10/07 11:35:58;;;;;;;19.48;17.38;;;;;;;24.12;55.70;101784.75;5009830;28;20468;-60
2023/10/07 11:38:26;;;;;;;21.40;18.98;;;;;;;24.13;55.57;101779.19;5009006;28;20077;-60
2023/10/07 11:40:55;;;;;;;22.75;19.05;;;;;;;24.11;55.29;101775.78;5006783;28;20046;-61
2023/10/07 11:43:23;;;;;;;18.90;15.05;;;;;;;24.12;55.18;101774.78;5008853;28;20046;-62
2023/10/07 11:45:50;;;;;;;18.42;15.63;;;;;;;24.14;55.41;101770.06;5014188;28;20053;-59
2023/10/07 11:48:21;;;;;;;18.73;15.32;;;;;;;24.16;55.51;101767.22;5013543;28;20065;-60
2023/10/07 11:50:49;;;;;;;18.73;16.27;;;;;;;24.16;55.41;101762.66;5013452;28;20050;-61
2023/10/07 11:53:19;;;;;;;18.70;15.55;;;;;;;24.18;55.81;101766.09;5012381;28;20046;-60
2023/10/07 11:55:47;;;;;;;16.17;13.82;;;;;;;24.20;55.43;101765.94;5013868;28;20396;-59
2023/10/07 11:58:15;;;;;;;16.75;14.60;;;;;;;24.22;55.04;101754.97;5014037;28;20046;-60
2023/10/07 12:00:44;;;;;;;16.65;14.00;;;;;;;24.23;55.05;101759.41;5013246;28;20097;-61
2023/10/07 12:03:12;;;;;;;15.88;14.00;;;;;;;24.23;55.05;101760.25;5013799;28;20046;-60
2023/10/07 12:05:43;;;;;;;17.48;14.68;;;;;;;24.25;54.70;101760.97;5013317;28;20042;-62
2023/10/07 12:08:11;;;;;;;16.38;14.23;;;;;;;24.26;54.30;101765.38;5012973;28;20045;-62
2023/10/07 12:10:40;;;;;;;17.67;14.68;;;;;;;24.28;54.51;101759.84;5003718;28;20046;-62
2023/10/07 12:13:11;;;;;;;17.17;14.93;;;;;;;24.28;54.65;101757.13;5013486;28;20052;-62
2023/10/07 12:15:41;;;;;;;16.67;14.85;;;;;;;24.29;54.62;101746.16;5011957;28;20053;-62
2023/10/07 12:18:30;;;;;;;17.25;15.30;;;;;;;24.31;54.59;101754.16;5012820;28;20064;-63
2023/10/07 12:21:00;;;;;;;19.13;17.10;;;;;;;24.31;54.05;101749.59;5012908;28;20061;-61
2023/10/07 12:23:30;;;;;;;16.52;14.73;;;;;;;24.31;53.73;101748.72;5013089;28;20050;-62
2023/10/07 12:25:57;;;;;;;17.05;15.20;;;;;;;24.32;53.93;101745.03;5012603;28;20046;-63
2023/10/07 12:28:26;;;;;;;17.25;15.43;;;;;;;24.32;53.85;101734.19;5012500;28;20050;-63
2023/10/07 12:30:53;;;;;;;18.95;15.38;;;;;;;24.31;53.31;101738.75;5012471;28;20042;-63
2023/10/07 12:33:20;;;;;;;22.90;16.50;;;;;;;24.34;53.41;101740.31;5014077;28;20518;-63